Time;durP1;ratioP1;P1;durP2;ratioP2;P2;SDS_P1;SDS_P2;PMS_P1;PMS_P2;Temp;Humidity;BMP_temperature;BMP_pressure;BME280_temperature;BME280_humidity;BME280_pressure;Samples;Min_cycle;Max_cycle;Signal;HPM_P1;HPM_P2
2021/03/27 00:02:18;;;;;;;13.75;5.10;;;12.00;99.90;;;13.03;53.88;100005.78;5035123;28;20511;-83
2021/03/27 00:05:19;;;;;;;8.18;4.57;;;12.10;99.90;;;13.04;54.00;100018.56;5018189;28;20064;-82
2021/03/27 00:08:32;;;;;;;7.10;4.53;;;12.10;99.90;;;13.08;53.54;99996.97;5028189;28;20511;-83
2021/03/27 00:11:34;;;;;;;9.25;5.22;;;12.20;99.90;;;13.26;53.58;100033.59;5035823;28;20025;-81
2021/03/27 00:14:14;;;;;;;12.63;6.65;;;12.30;99.90;;;13.19;53.88;100015.53;5027293;28;20060;-83
2021/03/27 00:17:01;;;;;;;9.63;5.68;;;12.30;99.90;;;13.11;54.50;100030.69;5017948;28;20120;-82
2021/03/27 00:19:41;;;;;;;13.10;6.45;;;12.30;99.90;;;12.95;55.41;100052.56;5017575;28;20052;-82
2021/03/27 00:22:43;;;;;;;12.85;6.43;;;12.20;99.90;;;12.75;57.11;100048.38;5018395;28;20040;-81
2021/03/27 00:25:36;;;;;;;12.30;7.07;;;12.00;99.90;;;12.66;57.74;100047.91;5019078;28;20033;-80
2021/03/27 00:28:06;;;;;;;15.88;7.72;;;11.90;99.90;;;12.60;58.22;100044.66;5019649;28;20030;-84
2021/03/27 00:30:58;;;;;;;15.88;7.40;;;11.70;99.90;;;12.54;60.10;100077.03;5031545;28;20193;-83
2021/03/27 00:33:35;;;;;;;16.85;9.48;;;11.60;99.90;;;11.98;63.91;100090.38;5029291;28;20025;-81
2021/03/27 00:36:19;;;;;;;16.50;10.50;;;11.20;99.90;;;11.40;66.76;100098.34;5017667;28;20061;-82
2021/03/27 00:38:58;;;;;;;19.40;12.48;;;10.60;99.90;;;11.03;68.27;100101.78;5034052;28;20079;-79
2021/03/27 00:41:38;;;;;;;22.08;11.23;;;10.20;99.90;;;10.74;69.46;100105.25;5035140;28;20555;-80
2021/03/27 00:44:11;;;;;;;10.55;7.60;;;9.90;99.90;;;10.42;69.90;100109.47;5033975;28;20041;-81
2021/03/27 00:46:42;;;;;;;9.65;5.95;;;9.60;99.90;;;10.18;71.95;100123.75;5017441;28;20036;-80
2021/03/27 00:49:25;;;;;;;12.70;5.68;;;9.30;99.90;;;9.99;72.41;100118.94;5017827;28;20060;-81
2021/03/27 00:52:05;;;;;;;9.50;5.55;;;9.20;99.90;;;9.62;74.70;100153.97;5018053;28;20022;-84
2021/03/27 00:55:01;;;;;;;7.72;5.22;;;8.90;99.90;;;9.54;76.63;100170.53;5019379;28;20393;-82
2021/03/27 00:57:45;;;;;;;8.35;5.90;;;8.80;99.90;;;9.28;78.89;100187.00;5027919;28;20396;-83
2021/03/27 01:00:43;;;;;;;11.75;7.38;;;8.50;99.90;;;8.74;81.66;100189.59;5017683;28;20104;-84
2021/03/27 01:03:45;;;;;;;10.60;6.53;;;8.10;99.90;;;8.79;81.83;100196.91;5031001;28;20026;-83
2021/03/27 01:06:32;;;;;;;12.57;8.23;;;8.00;99.90;;;8.71;82.75;100193.09;5045256;28;20030;-82
2021/03/27 01:09:03;;;;;;;11.48;8.77;;;7.80;99.90;;;8.71;83.76;100209.00;5037478;28;20536;-82
2021/03/27 01:11:44;;;;;;;19.20;11.95;;;7.70;99.90;;;8.46;85.16;100211.09;5037464;28;20444;-81
2021/03/27 01:14:25;;;;;;;18.25;13.80;;;7.60;99.90;;;8.33;85.69;100203.97;5038396;28;20021;-82
2021/03/27 01:16:58;;;;;;;16.70;12.93;;;7.40;99.90;;;8.23;86.10;100205.22;5038477;28;20032;-83
2021/03/27 01:19:40;;;;;;;15.32;12.40;;;7.40;99.90;;;8.22;86.66;100214.75;5039463;28;20055;-82
2021/03/27 01:22:12;;;;;;;19.27;12.15;;;7.40;99.90;;;8.29;85.99;100234.47;5037328;28;20036;-82
2021/03/27 01:24:40;;;;;;;16.80;12.77;;;7.20;99.90;;;8.16;86.75;100237.59;5054705;28;20107;-83
2021/03/27 01:27:28;;;;;;;18.63;12.82;;;7.20;99.90;;;8.06;87.34;100230.53;5038073;28;20029;-83
2021/03/27 01:30:40;;;;;;;15.45;11.25;;;7.10;99.90;;;7.88;87.55;100260.59;5055858;28;20060;-80
2021/03/27 01:33:41;;;;;;;12.90;8.27;;;7.00;99.90;;;7.54;86.94;100271.41;5023770;28;20058;-83
2021/03/27 01:36:22;;;;;;;9.57;6.25;;;6.80;99.90;;;7.29;87.22;100265.81;5037909;28;20400;-81
2021/03/27 01:39:23;;;;;;;10.18;6.93;;;6.70;99.90;;;7.27;87.09;100253.41;5038389;28;20041;-80
2021/03/27 01:42:17;;;;;;;9.30;5.97;;;6.60;99.90;;;7.26;87.06;100265.69;5037422;28;20039;-81
2021/03/27 01:45:06;;;;;;;8.60;5.40;;;6.50;99.90;;;7.27;85.39;100245.09;5036984;28;20028;-82
2021/03/27 01:48:08;;;;;;;9.88;5.50;;;6.40;99.90;;;7.36;85.90;100254.94;5037519;28;20032;-80
2021/03/27 01:50:46;;;;;;;12.93;7.45;;;6.40;99.90;;;7.17;87.55;100260.22;5037828;28;20033;-82
2021/03/27 01:53:41;;;;;;;10.40;7.80;;;6.30;99.90;;;7.17;87.18;100263.00;5038589;28;20405;-82
2021/03/27 01:56:27;;;;;;;11.80;7.90;;;6.30;99.90;;;7.08;87.94;100259.53;5045300;28;20029;-81
2021/03/27 01:59:20;;;;;;;13.73;8.10;;;6.30;99.90;;;7.20;87.18;100276.22;5039240;28;20029;-84
2021/03/27 02:02:06;;;;;;;12.18;7.43;;;6.30;99.90;;;7.23;87.54;100275.53;5039156;28;20101;-86
2021/03/27 02:05:02;;;;;;;11.77;7.50;;;6.30;99.90;;;7.13;88.15;100281.50;5058189;28;20060;-82
2021/03/27 02:08:10;;;;;;;12.27;8.77;;;6.30;99.90;;;7.16;88.25;100283.59;5033820;28;20026;-82
2021/03/27 02:10:52;;;;;;;;;;;6.20;99.90;;;7.12;87.36;100271.59;5036315;28;20040;-81
2021/03/27 02:14:04;;;;;;;10.70;7.38;;;6.20;99.90;;;7.00;87.46;100290.19;5018428;28;19909;-81
2021/03/27 02:17:02;;;;;;;14.25;7.53;;;6.20;99.90;;;6.89;88.05;100298.13;5017961;28;20025;-85
2021/03/27 02:20:43;;;;;;;12.85;7.78;;;6.20;99.90;;;6.99;87.75;100306.03;5021959;28;20036;-86
2021/03/27 02:23:58;;;;;;;9.32;6.13;;;6.10;99.90;;;6.98;87.07;100303.56;5018641;28;20080;-82
2021/03/27 02:26:57;;;;;;;10.68;7.50;;;6.10;99.90;;;7.03;87.66;100314.47;5035752;28;20033;-83
2021/03/27 02:29:28;;;;;;;12.07;8.10;;;6.00;99.90;;;6.93;89.03;100320.47;5019373;28;20032;-82
2021/03/27 02:32:27;;;;;;;16.55;9.82;;;6.00;99.90;;;6.70;88.69;100297.81;5035746;28;20491;-83
2021/03/27 02:35:14;;;;;;;13.45;9.85;;;6.00;99.90;;;6.72;88.45;100318.53;5034090;28;20029;-83
2021/03/27 02:38:26;;;;;;;12.90;8.73;;;5.90;99.90;;;6.58;89.06;100325.53;5035213;28;20469;-83
2021/03/27 02:41:16;;;;;;;11.88;7.55;;;5.90;99.90;;;6.63;88.78;100319.75;5016786;28;20059;-84
2021/03/27 02:44:00;;;;;;;9.98;6.78;;;5.90;99.90;;;6.53;89.39;100322.94;5035428;28;20034;-86
2021/03/27 02:46:44;;;;;;;10.60;6.32;;;5.80;99.90;;;6.56;89.50;100336.13;5035302;28;20087;-84
2021/03/27 02:50:01;;;;;;;13.40;6.53;;;5.70;99.90;;;6.61;89.58;100328.44;5029624;28;20529;-84
2021/03/27 02:52:55;;;;;;;10.55;5.50;;;5.80;99.90;;;6.61;89.83;100344.25;5024645;28;20075;-83
2021/03/27 02:55:29;;;;;;;10.50;5.38;;;5.70;99.90;;;6.60;90.42;100351.78;5016959;28;20045;-84
2021/03/27 02:58:18;;;;;;;10.32;4.47;;;5.70;99.90;;;6.52;89.87;100337.97;5034638;28;20085;-81
2021/03/27 03:01:13;;;;;;;5.85;3.20;;;5.70;99.90;;;6.50;89.53;100365.22;5016876;28;20087;-86
2021/03/27 03:04:00;;;;;;;3.97;2.40;;;5.70;99.90;;;6.45;90.14;100368.22;5035043;28;20055;-84
2021/03/27 03:07:09;;;;;;;8.82;3.00;;;5.70;99.90;;;6.40;90.56;100357.31;5035050;28;20035;-83
2021/03/27 03:10:19;;;;;;;6.03;2.42;;;5.60;99.90;;;6.49;90.34;100371.91;5034540;28;20539;-86
2021/03/27 03:13:25;;;;;;;9.95;2.80;;;5.60;99.90;;;6.48;90.43;100362.81;5034667;28;20164;-84
2021/03/27 03:16:21;;;;;;;4.80;2.35;;;5.60;99.90;;;6.52;91.01;100385.16;5017390;28;20044;-82
2021/03/27 03:19:06;;;;;;;5.80;3.92;;;5.60;99.90;;;6.52;91.06;100388.72;5017596;28;20072;-84
2021/03/27 03:21:45;;;;;;;9.48;2.70;;;5.60;99.90;;;6.58;90.37;100387.34;5034899;28;20037;-83
2021/03/27 03:24:57;;;;;;;6.90;2.67;;;5.60;99.90;;;6.51;90.45;100384.31;5033677;28;20060;-84
2021/03/27 03:28:05;;;;;;;8.45;2.90;;;5.70;99.90;;;6.51;90.57;100384.31;5013917;28;20493;-82
2021/03/27 03:31:23;;;;;;;6.55;2.83;;;5.70;99.90;;;6.57;89.83;100398.81;5020134;28;20116;-85
2021/03/27 03:34:14;;;;;;;14.20;3.72;;;5.70;99.90;;;6.62;90.23;100407.72;5020911;28;20021;-84
2021/03/27 03:37:14;;;;;;;9.02;3.13;;;5.70;99.90;;;6.58;89.63;100411.53;5021078;28;20112;-83
2021/03/27 03:40:24;;;;;;;7.25;2.85;;;5.70;99.90;;;6.61;89.33;100421.97;5021338;28;20543;-84
2021/03/27 03:44:09;;;;;;;7.55;3.17;;;5.70;99.90;;;6.60;89.57;100412.81;5021144;28;20029;-84
2021/03/27 03:46:38;;;;;;;8.10;3.30;;;5.80;99.90;;;6.63;89.36;100422.44;5027409;28;20090;-84
2021/03/27 03:49:29;;;;;;;6.88;4.15;;;5.80;99.90;;;6.55;89.49;100426.09;5021286;28;20052;-86
2021/03/27 03:52:44;;;;;;;7.45;3.33;;;5.80;99.90;;;6.63;89.07;100441.84;5038431;28;20069;-83
2021/03/27 03:56:25;;;;;;;11.32;4.63;;;5.80;99.90;;;6.65;88.56;100436.78;5020617;28;20056;-84
2021/03/27 03:59:43;;;;;;;7.45;3.60;;;5.80;99.90;;;6.69;88.06;100435.78;5028044;28;20033;-85
2021/03/27 04:02:33;;;;;;;;;;;5.80;99.90;;;6.67;87.39;100440.84;5035959;28;20041;-81
2021/03/27 04:05:18;;;;;;;10.73;3.65;;;5.80;99.90;;;6.66;87.18;100433.66;5020948;28;19924;-82
2021/03/27 04:08:21;;;;;;;7.57;3.45;;;5.70;99.90;;;6.52;86.81;100443.41;5020547;28;20025;-85
2021/03/27 04:10:58;;;;;;;8.50;3.42;;;5.70;99.90;;;6.69;86.70;100446.88;5030085;28;20045;-81
2021/03/27 04:13:41;;;;;;;12.02;3.65;;;5.70;99.90;;;6.58;86.90;100458.72;5020368;28;20059;-85
2021/03/27 04:16:14;;;;;;;8.50;3.30;;;5.70;99.90;;;6.47;86.85;100458.28;5019857;28;20283;-84
2021/03/27 04:19:09;;;;;;;9.20;3.60;;;5.60;99.90;;;6.56;86.14;100466.53;5019393;28;20025;-86
2021/03/27 04:21:54;;;;;;;10.48;3.47;;;5.60;99.90;;;6.46;86.47;100458.59;5019462;28;20083;-84
2021/03/27 04:24:33;;;;;;;10.70;4.20;;;5.60;99.90;;;6.29;87.03;100465.88;5019187;28;20061;-85
2021/03/27 04:27:25;;;;;;;9.60;3.95;;;5.50;99.90;;;6.28;86.95;100480.09;5037335;28;20272;-84
2021/03/27 04:30:36;;;;;;;11.65;4.28;;;5.50;99.90;;;6.44;86.09;100481.13;5019199;28;20030;-81
2021/03/27 04:34:01;;;;;;;10.27;3.83;;;5.50;99.90;;;6.30;86.05;100481.38;5019578;28;20401;-80
2021/03/27 04:37:18;;;;;;;11.65;3.92;;;5.40;99.90;;;6.24;86.33;100479.13;5019886;28;20041;-83
2021/03/27 04:40:12;;;;;;;8.10;4.18;;;5.50;99.90;;;6.21;86.38;100482.56;5017607;28;20111;-84
2021/03/27 04:43:16;;;;;;;9.43;3.90;;;5.40;99.90;;;6.20;86.52;100490.06;5019331;28;20449;-84
2021/03/27 04:45:57;;;;;;;8.32;4.43;;;5.40;99.90;;;6.18;85.80;100486.81;5037098;28;20021;-82
2021/03/27 04:48:52;;;;;;;13.40;4.95;;;5.30;99.90;;;6.27;86.00;100493.13;5018546;28;20025;-84
2021/03/27 04:51:55;;;;;;;11.45;4.75;;;5.30;99.90;;;6.21;86.08;100490.88;5018319;28;20033;-84
2021/03/27 04:54:39;;;;;;;12.30;4.75;;;5.30;99.90;;;6.08;86.33;100480.81;5035896;28;20064;-84
2021/03/27 04:57:27;;;;;;;15.13;4.82;;;5.30;99.90;;;6.06;86.33;100497.78;5018652;28;20400;-82
2021/03/27 05:00:37;;;;;;;8.77;4.70;;;5.30;99.90;;;6.27;84.87;100486.75;5018306;28;20021;-86
2021/03/27 05:03:39;;;;;;;10.45;4.57;;;5.40;99.90;;;6.27;84.96;100497.84;4984314;28;20558;-84
2021/03/27 05:06:38;;;;;;;10.73;4.85;;;5.40;99.90;;;6.24;84.94;100504.88;5035821;28;20056;-85
2021/03/27 05:09:35;;;;;;;8.85;4.82;;;5.40;99.90;;;6.13;85.84;100508.38;5049506;28;20063;-85
2021/03/27 05:12:39;;;;;;;17.65;5.57;;;5.40;99.90;;;6.27;84.38;100511.72;5048292;28;20033;-82
2021/03/27 05:15:47;;;;;;;12.82;4.72;;;5.40;99.90;;;6.30;84.92;100500.78;5035640;28;20034;-81
2021/03/27 05:19:02;;;;;;;12.00;4.43;;;5.40;99.90;;;6.45;83.83;100512.47;5033957;28;20109;-84
2021/03/27 05:22:14;;;;;;;15.65;5.15;;;5.50;99.90;;;6.45;83.89;100516.06;5034241;28;20042;-83
2021/03/27 05:25:24;;;;;;;10.68;4.43;;;5.50;99.90;;;6.57;83.83;100523.69;5017137;28;20085;-82
2021/03/27 05:28:27;;;;;;;13.57;4.63;;;5.60;99.90;;;6.57;83.21;100527.25;5034605;28;20029;-85
2021/03/27 05:31:20;;;;;;;14.20;4.65;;;5.60;99.90;;;6.57;83.24;100530.03;5049328;23;20048;-84
2021/03/27 05:34:07;;;;;;;8.48;4.30;;;5.70;99.90;;;6.71;82.43;100527.81;5022741;28;20030;-82
2021/03/27 05:37:34;;;;;;;12.93;4.35;;;5.80;99.90;;;6.77;82.71;100531.25;5040211;28;20025;-82
2021/03/27 05:41:22;;;;;;;15.40;4.13;;;5.80;99.90;;;6.77;82.22;100532.06;5039440;28;20381;-84
2021/03/27 05:44:24;;;;;;;16.20;4.25;;;5.80;99.90;;;6.66;82.72;100538.31;5040258;28;20099;-83
2021/03/27 05:47:18;;;;;;;9.45;3.33;;;5.80;99.90;;;6.80;81.42;100538.91;5039323;28;20034;-83
2021/03/27 05:50:22;;;;;;;10.77;3.88;;;5.90;99.90;;;6.80;81.47;100531.38;5041543;28;20116;-84
2021/03/27 05:53:42;;;;;;;14.35;3.92;;;6.00;99.90;;;6.86;81.47;100549.47;5041193;28;20033;-84
2021/03/27 05:56:53;;;;;;;18.92;4.10;;;6.00;99.90;;;6.77;81.00;100540.38;5023641;28;20033;-84
2021/03/27 05:59:50;;;;;;;9.50;3.30;;;6.00;99.90;;;6.83;81.15;100543.78;5038323;28;20084;-84
2021/03/27 06:02:43;;;;;;;;;;;6.00;99.90;;;6.97;80.12;100532.44;5038732;28;20029;-84
2021/03/27 06:05:33;;;;;;;13.02;3.10;;;6.00;99.90;;;6.90;80.44;100530.19;5039936;28;20257;-83
2021/03/27 06:08:43;;;;;;;9.82;3.17;;;6.10;99.90;;;6.96;80.02;100533.56;5038771;28;20097;-84
2021/03/27 06:12:13;;;;;;;9.75;3.28;;;6.10;99.90;;;7.00;80.39;100538.09;5016138;28;20145;-84
2021/03/27 06:15:45;;;;;;;7.63;3.00;;;6.10;99.90;;;6.92;79.22;100530.66;5020829;28;20365;-84
2021/03/27 06:19:04;;;;;;;13.98;3.65;;;6.10;99.90;;;7.07;79.13;100543.13;5018036;28;20051;-82
2021/03/27 06:22:20;;;;;;;10.63;3.58;;;6.20;99.90;;;6.99;78.37;100538.44;5037884;28;20022;-85
2021/03/27 06:25:32;;;;;;;11.93;3.17;;;6.20;99.90;;;7.08;77.81;100562.22;5043574;28;20026;-82
2021/03/27 06:28:55;;;;;;;12.80;3.30;;;6.30;99.90;;;7.05;77.82;100554.56;5041675;28;20030;-84
2021/03/27 06:32:29;;;;;;;10.70;2.65;;;6.30;99.90;;;7.00;78.12;100556.75;4990893;28;20397;-85
2021/03/27 06:35:32;;;;;;;8.27;2.38;;;6.30;99.90;;;7.09;78.25;100574.16;5021813;28;20570;-83
2021/03/27 06:39:03;;;;;;;9.95;3.03;;;6.20;99.90;;;6.90;79.03;100563.50;5040119;28;20026;-84
2021/03/27 06:42:23;;;;;;;9.85;2.92;;;6.20;99.90;;;7.09;79.02;100574.16;5008309;28;20042;-84
2021/03/27 06:45:29;;;;;;;14.25;3.50;;;6.30;99.90;;;7.09;80.05;100572.19;5039469;28;20396;-84
2021/03/27 06:48:37;;;;;;;17.40;4.28;;;6.30;99.90;;;7.11;80.71;100582.97;5023580;28;20068;-84
2021/03/27 06:51:40;;;;;;;13.38;3.40;;;6.20;99.90;;;7.14;80.42;100582.28;5041263;28;20026;-84
2021/03/27 06:54:53;;;;;;;15.05;3.53;;;6.20;99.90;;;7.37;80.45;100594.72;5040469;28;20473;-84
2021/03/27 06:58:28;;;;;;;10.23;2.78;;;6.40;99.90;;;7.69;78.02;100595.94;5038721;28;20041;-86
2021/03/27 07:01:41;;;;;;;11.15;3.22;;;6.60;99.90;;;7.92;76.38;100595.22;5001486;28;20335;-85
2021/03/27 07:04:28;;;;;;;10.40;3.33;;;7.00;99.90;;;7.94;75.35;100601.25;5021816;28;20051;-84
2021/03/27 07:07:40;;;;;;;9.10;3.45;;;7.10;99.90;;;7.92;75.35;100602.75;5040955;28;20029;-84
2021/03/27 07:10:48;;;;;;;12.68;3.13;;;7.10;99.90;;;7.73;75.84;100610.78;5003722;28;20026;-85
2021/03/27 07:13:38;;;;;;;9.80;3.30;;;6.90;99.90;;;7.80;75.98;100613.84;5021587;28;20041;-83
2021/03/27 07:16:26;;;;;;;9.57;2.90;;;6.80;99.90;;;7.78;75.77;100614.16;5003455;28;20025;-82
2021/03/27 07:20:07;;;;;;;11.00;3.45;;;6.80;99.90;;;7.75;76.23;100619.59;5020168;28;20030;-84
2021/03/27 07:23:28;;;;;;;9.48;3.47;;;6.80;99.90;;;7.79;75.50;100614.97;5003735;28;20064;-82
2021/03/27 07:26:39;;;;;;;10.40;3.80;;;6.90;99.90;;;7.87;75.46;100626.00;5020971;28;20485;-83
2021/03/27 07:29:46;;;;;;;7.82;2.80;;;6.90;99.90;;;7.75;76.78;100633.47;5020372;28;20040;-83
2021/03/27 07:32:51;;;;;;;13.55;3.30;;;6.80;99.90;;;7.00;81.66;100651.16;4983389;28;20060;-83
2021/03/27 07:35:31;;;;;;;8.38;3.53;;;6.50;99.90;;;6.77;81.78;100656.97;5020095;28;20116;-84
2021/03/27 07:38:33;;;;;;;13.98;3.38;;;6.10;99.90;;;6.73;83.71;100663.50;5020114;28;20026;-84
2021/03/27 07:41:30;;;;;;;9.82;2.80;;;5.80;99.90;;;6.53;83.66;100678.09;5023345;28;20036;-84
2021/03/27 07:45:09;;;;;;;6.30;2.15;;;5.80;99.90;;;6.05;84.34;100764.28;5022891;28;20029;-83
2021/03/27 07:48:12;;;;;;;2.78;0.70;;;5.50;99.90;;;4.62;86.50;100765.88;4985453;28;20267;-83
2021/03/27 07:51:19;;;;;;;2.22;0.98;;;4.30;99.90;;;3.96;88.53;100780.44;5024901;28;20034;-83
2021/03/27 07:54:56;;;;;;;3.13;0.80;;;3.50;99.90;;;3.73;91.02;100774.06;5014474;28;20045;-82
2021/03/27 07:57:58;;;;;;;3.50;1.20;;;3.10;99.90;;;3.69;91.16;100757.28;5022358;28;20026;-82
2021/03/27 08:01:25;;;;;;;6.22;0.98;;;3.00;99.90;;;3.75;90.89;100755.25;5018698;28;20030;-83
2021/03/27 08:04:34;;;;;;;3.45;1.00;;;2.90;99.90;;;3.77;90.86;100771.47;4998607;28;20420;-82
2021/03/27 08:08:18;;;;;;;4.30;1.00;;;3.00;99.90;;;4.02;90.36;100766.19;5020866;28;20021;-84
2021/03/27 08:11:34;;;;;;;6.53;1.60;;;3.00;99.90;;;4.30;89.85;100768.88;5041429;28;20029;-84
2021/03/27 08:15:15;;;;;;;5.38;1.42;;;3.30;99.90;;;4.38;88.99;100773.66;5042469;28;20025;-81
2021/03/27 08:18:40;;;;;;;3.22;1.50;;;3.40;99.90;;;4.73;89.09;100778.28;5037333;28;20034;-83
2021/03/27 08:22:03;;;;;;;5.40;1.50;;;3.70;99.90;;;5.11;88.25;100785.03;5010705;28;20039;-84
2021/03/27 08:25:14;;;;;;;6.68;1.58;;;4.00;99.90;;;5.17;87.69;100811.44;5037611;28;20040;-83
2021/03/27 08:28:25;;;;;;;5.20;1.33;;;4.20;99.90;;;5.26;87.61;100814.25;5040994;28;20266;-81
2021/03/27 08:32:03;;;;;;;4.63;1.40;;;4.30;99.90;;;5.33;87.84;100820.97;5039220;28;20026;-83
2021/03/27 08:35:21;;;;;;;5.00;1.48;;;4.40;99.90;;;5.32;87.56;100813.81;4969134;28;20507;-82
2021/03/27 08:38:18;;;;;;;8.48;2.25;;;4.50;99.90;;;5.45;87.39;100814.84;5038566;28;20033;-84
2021/03/27 08:41:38;;;;;;;;;;;4.60;99.90;;;5.56;86.47;100815.34;5038712;28;20021;-82
2021/03/27 08:45:03;;;;;;;7.88;2.55;;;4.60;99.90;;;5.42;86.69;100832.09;5037939;28;19955;-84
2021/03/27 08:48:32;;;;;;;8.30;2.40;;;4.60;99.90;;;5.67;86.86;100825.81;5038593;28;20032;-83
2021/03/27 08:51:29;;;;;;;7.30;1.88;;;4.60;99.90;;;5.88;86.75;100834.38;5027092;28;20125;-85
2021/03/27 08:54:54;;;;;;;8.23;2.38;;;4.80;99.90;;;5.98;86.09;100859.03;5040279;28;20029;-83
2021/03/27 08:57:53;;;;;;;8.57;2.65;;;4.90;99.90;;;6.15;84.06;100856.31;5039010;28;20041;-83
2021/03/27 09:01:09;;;;;;;8.52;2.60;;;5.20;99.90;;;6.39;82.45;100863.38;5037370;28;20385;-84
2021/03/27 09:04:22;;;;;;;7.00;2.35;;;5.30;99.90;;;6.10;82.18;100877.84;5037619;28;20034;-85
2021/03/27 09:07:37;;;;;;;8.65;2.30;;;5.30;99.90;;;6.30;82.72;100875.25;5019707;28;20033;-85
2021/03/27 09:10:50;;;;;;;9.13;2.50;;;5.30;99.90;;;6.28;81.26;100880.31;5000189;28;20482;-84
2021/03/27 09:13:53;;;;;;;5.60;2.35;;;5.30;99.90;;;6.37;81.90;100888.66;5018472;28;20060;-84
2021/03/27 09:16:56;;;;;;;5.50;2.28;;;5.40;99.90;;;6.58;81.66;100895.19;5016452;28;20038;-84
2021/03/27 09:20:02;;;;;;;5.07;3.28;;;5.50;99.90;;;6.50;80.18;100889.63;5015401;28;20029;-83
2021/03/27 09:23:01;;;;;;;6.20;2.23;;;5.60;99.90;;;6.64;80.31;100895.88;5016155;28;20026;-84
2021/03/27 09:26:24;;;;;;;6.97;2.60;;;5.70;99.90;;;6.84;80.39;100896.00;5019111;28;20038;-85
2021/03/27 09:29:28;;;;;;;6.93;2.80;;;5.80;99.90;;;7.08;78.71;100898.28;5017066;28;20033;-86
2021/03/27 09:32:23;;;;;;;5.30;2.63;;;6.00;99.90;;;7.06;78.51;100894.22;5017385;28;20493;-81
2021/03/27 09:35:25;;;;;;;9.40;2.97;;;6.10;99.90;;;7.25;79.49;100895.50;5017558;28;20030;-87
2021/03/27 09:38:21;;;;;;;8.05;3.10;;;6.20;99.90;;;7.97;76.73;100895.38;5018640;28;20029;-84
2021/03/27 09:41:52;;;;;;;7.72;2.80;;;6.80;99.90;;;9.00;74.78;100903.06;5016952;28;20504;-85
2021/03/27 09:45:14;;;;;;;9.23;3.25;;;7.60;99.90;;;9.74;71.47;100890.97;5019625;28;20026;-85
2021/03/27 09:48:22;;;;;;;7.90;2.85;;;8.40;99.90;;;9.92;69.97;100889.56;5019449;28;20040;-83
2021/03/27 09:51:08;;;;;;;8.18;2.97;;;8.90;99.90;;;10.41;68.41;100890.41;5015553;28;20106;-84
2021/03/27 09:54:25;;;;;;;6.35;2.45;;;9.30;99.90;;;10.23;71.29;100882.63;5016698;28;20026;-85
2021/03/27 09:57:09;;;;;;;;;;;9.30;99.90;;;9.15;70.31;100882.09;5011520;28;20041;-83
2021/03/27 10:00:07;;;;;;;7.65;2.90;;;8.60;99.90;;;8.56;72.30;100897.38;4998433;28;20310;-86
2021/03/27 10:03:08;;;;;;;7.40;2.83;;;8.00;99.90;;;7.91;73.98;100979.34;5016430;28;20025;-83
2021/03/27 10:06:06;;;;;;;6.97;1.30;;;7.30;99.90;;;6.48;75.43;101008.47;4998781;28;20604;-85
2021/03/27 10:09:04;;;;;;;2.08;0.93;;;6.00;99.90;;;4.77;81.64;101007.03;5028434;28;20025;-84
2021/03/27 10:11:36;;;;;;;2.33;0.90;;;4.50;99.90;;;4.30;83.61;101006.69;5026228;28;20526;-86
2021/03/27 10:14:27;;;;;;;3.53;1.10;;;3.60;99.90;;;3.84;85.23;100988.22;5026198;28;20037;-84
2021/03/27 10:17:05;;;;;;;2.92;1.00;;;3.00;99.90;;;3.59;87.10;100974.88;5038512;28;20037;-84
2021/03/27 10:20:35;;;;;;;3.22;1.60;;;2.70;99.90;;;3.47;87.83;100961.53;5034359;28;20039;-84
2021/03/27 10:23:13;;;;;;;3.38;1.40;;;2.50;99.90;;;3.09;89.58;100980.13;5016654;28;20107;-84
2021/03/27 10:26:08;;;;;;;12.52;5.75;;;2.30;99.90;;;3.33;89.40;100993.00;5034926;28;20033;-85
2021/03/27 10:28:49;;;;;;;2.67;2.00;;;2.30;99.90;;;3.36;89.32;100996.00;5034985;28;20044;-84
2021/03/27 10:31:36;;;;;;;2.85;1.90;;;2.30;99.90;;;3.47;89.43;100997.44;5017114;28;20291;-85
2021/03/27 10:34:40;;;;;;;4.00;2.00;;;2.30;99.90;;;3.44;89.66;101000.00;5034608;28;20038;-85
2021/03/27 10:37:45;;;;;;;3.17;2.20;;;2.40;99.90;;;3.37;89.94;101002.34;5034550;28;20033;-86
2021/03/27 10:40:14;;;;;;;2.55;1.92;;;2.40;99.90;;;3.45;89.91;101010.75;5033989;28;20060;-84
2021/03/27 10:43:04;;;;;;;6.18;2.50;;;2.40;99.90;;;3.41;90.32;101012.47;5033907;28;20079;-84
2021/03/27 10:46:12;;;;;;;5.35;2.40;;;2.40;99.90;;;3.25;91.29;100991.75;5035689;28;20107;-86
2021/03/27 10:48:41;;;;;;;4.93;2.40;;;2.50;99.90;;;3.53;90.84;101003.72;5034550;28;20473;-84
2021/03/27 10:52:03;;;;;;;4.40;2.42;;;2.60;99.90;;;3.76;89.93;101049.69;5035125;28;20036;-86
2021/03/27 10:55:19;;;;;;;6.82;2.72;;;2.60;99.90;;;3.80;90.42;101055.44;5034403;28;20033;-86
2021/03/27 10:58:24;;;;;;;6.70;2.60;;;2.70;99.90;;;3.52;92.16;101052.63;5018641;28;20034;-83
2021/03/27 11:00:57;;;;;;;9.75;3.28;;;2.80;99.90;;;3.87;91.87;101047.59;5034978;28;20036;-83
2021/03/27 11:04:00;;;;;;;13.40;4.90;;;2.90;99.90;;;4.51;92.39;101044.66;5033554;28;20033;-87
2021/03/27 11:07:25;;;;;;;9.65;3.35;;;3.40;99.90;;;5.38;89.85;101038.00;5034774;28;20045;-83
2021/03/27 11:11:02;;;;;;;12.90;3.60;;;4.20;99.90;;;5.97;86.22;101034.88;5015642;28;20034;-86
2021/03/27 11:14:08;;;;;;;11.00;3.40;;;4.70;99.90;;;5.93;85.57;101042.19;4998261;28;20064;-86
2021/03/27 11:17:18;;;;;;;8.20;2.60;;;4.90;99.90;;;5.78;86.46;101054.44;5015374;28;20091;-85
2021/03/27 11:20:15;;;;;;;9.32;3.05;;;4.90;99.90;;;5.77;84.16;101050.03;5015340;28;20256;-87
2021/03/27 11:23:20;;;;;;;7.43;2.65;;;4.90;99.90;;;5.85;85.60;101048.44;5017242;28;20080;-85
2021/03/27 11:26:34;;;;;;;8.88;2.88;;;4.90;99.90;;;6.12;84.28;101044.72;5015809;28;20030;-87
2021/03/27 11:29:44;;;;;;;12.85;3.42;;;5.10;99.90;;;6.51;82.93;101044.72;5017841;28;20030;-86
2021/03/27 11:33:07;;;;;;;10.65;3.47;;;5.40;99.90;;;7.32;83.71;101034.72;5035470;23;20045;-86
2021/03/27 11:36:03;;;;;;;9.40;2.67;;;6.00;99.90;;;8.40;78.00;101045.50;5021400;28;20030;-87
2021/03/27 11:38:42;;;;;;;15.25;3.38;;;7.00;99.90;;;9.20;75.62;101054.69;5022824;28;20285;-87
2021/03/27 11:41:37;;;;;;;10.10;2.90;;;7.80;99.90;;;9.82;71.35;101056.63;5006650;28;20069;-85
2021/03/27 11:44:55;;;;;;;6.82;2.40;;;8.30;99.90;;;9.46;71.87;101046.13;5022008;28;20397;-86
2021/03/27 11:48:19;;;;;;;6.50;2.35;;;8.40;99.90;;;8.86;72.34;101052.94;5006124;28;20030;-86
2021/03/27 11:51:00;;;;;;;11.18;3.15;;;8.00;99.90;;;8.35;73.95;101047.63;5026294;28;20054;-86
2021/03/27 11:54:01;;;;;;;8.88;3.15;;;7.50;99.90;;;7.97;74.73;101067.03;5027841;28;20116;-86
2021/03/27 11:57:16;;;;;;;10.70;3.90;;;7.10;99.90;;;7.64;77.59;101071.50;5010945;28;20048;-87
2021/03/27 12:03:49;;;;;;;12.05;3.35;;;6.60;99.90;;;7.90;74.65;101061.16;4984370;28;20041;-84
2021/03/27 12:06:51;;;;;;;7.10;3.47;;;6.90;99.90;;;9.06;72.90;101078.38;5011591;28;20167;-86
2021/03/27 12:09:26;;;;;;;9.73;2.95;;;7.80;99.90;;;9.74;69.48;101082.59;5028406;28;20029;-86
2021/03/27 12:11:52;;;;;;;7.38;2.60;;;8.50;99.90;;;9.53;62.38;101080.66;5037517;28;20251;-85
2021/03/27 12:14:34;;;;;;;9.18;3.15;;;8.80;99.90;;;9.53;64.88;101091.78;5037895;28;20026;-85
2021/03/27 12:17:50;;;;;;;7.03;3.65;;;8.80;99.90;;;9.54;67.20;101078.69;5038075;28;20026;-85
2021/03/27 12:21:04;;;;;;;8.32;3.95;;;8.70;99.90;;;10.73;62.51;101075.78;5038580;28;20093;-85
2021/03/27 12:23:48;;;;;;;9.52;2.58;;;9.50;99.90;;;10.70;62.97;101070.88;5034056;28;20034;-85
2021/03/27 12:26:17;;;;;;;6.63;2.60;;;9.80;99.90;;;10.54;57.91;101081.94;5005380;28;20034;-87
2021/03/27 12:29:17;;;;;;;9.63;3.42;;;9.70;99.90;;;10.28;60.57;101086.19;5020409;28;20420;-84
2021/03/27 12:32:03;;;;;;;7.53;2.90;;;9.40;99.90;;;10.25;62.05;101090.50;5003898;28;20048;-87
2021/03/27 12:34:47;;;;;;;10.27;2.97;;;9.20;99.90;;;9.98;59.77;101088.31;5022778;28;20045;-86
2021/03/27 12:37:31;;;;;;;9.13;2.45;;;9.10;99.90;;;9.82;59.81;101102.06;5006705;28;20070;-84
2021/03/27 12:40:32;;;;;;;8.07;2.83;;;8.90;99.90;;;9.99;57.80;101101.91;5019734;28;20056;-86
2021/03/27 12:43:11;;;;;;;14.32;3.08;;;8.90;99.90;;;10.70;58.92;101090.44;5003979;28;20052;-85
2021/03/27 12:46:24;;;;;;;11.93;3.10;;;9.40;99.90;;;10.94;56.41;101098.84;5020061;28;20022;-85
2021/03/27 12:49:34;;;;;;;7.75;2.42;;;9.80;99.90;;;10.27;56.94;101101.31;5009623;28;20026;-85